LYBELRTR

Guest
Details From LYBE - Belgrade
To LRTR - TRAIAN VUIA
Flight Number -
Tags generated
Created
Modified
Stats Distance 75 nm / 138 km
Max Altitude 300 ft / 91 m
Waypoints 3
Social Downloads 1
Likes 0
Share VATSIM

Download

Looking for another format? Having issues loading an existing format? Contact us
Advertisement - Login to hide

Notes

Basic altitude profile: - Ascent Rate: 2500ft/min - Ascent Speed: 250kts - Cruise Altitude: 35000ft - Cruise Speed: 420kts - Descent Rate: 1500ft/min - Descent Speed: 250kts Options: - Use NATs: yes - Use PACOTS: yes - Use low airways: yes - Use high airways: yes

Route

LYBE TSR LRTR

ID Type Via Altitude Latitude Longitude Leg Dist Tot Dist Heading (true) Name
O LYBE APT - 0 ft / 0 m 44.81843˚ 20.30921˚ - 0 nm - Belgrade
TSR NDB - 300 ft / 91 m 45.81799˚ 21.30541˚ 73 nm 73 nm 35° / 35° TIMISOARA NDB
O LRTR APT - 0 ft / 0 m 45.80983˚ 21.33787˚ 1 nm 74 nm 110° / 110° TRAIAN VUIA

Altitude Profile

Advertisement - Login to hide

LYBE

Details ICAO LYBE (BEG)
Name Belgrade
Region Serbia and Montenegro
Timezone Europe/Belgrade (UTC+2.0)
Stats Elevation 335 ft / 102 m (AMSL)
Location 44.818429° 20.309211°
Runways 1
Magnetic Variation 4.719° E

METAR

LYBE 221330Z 12011KT 9999 FEW040 25/16 Q1015 NOSIG

Decode

TAF

TAF LYBE 221100Z 2212/2312 13008KT 9999 SCT040 TX26/2213Z TN14/2303Z TEMPO 2212/2215 14020KT PROB30 TEMPO 2215/2218 VRB25KT 5000 TSRA SCT030CB BKN040 TEMPO 2309/2312 4000 TSRA SCT027CB BKN040

Decode

Departure Runways

ID Width Length Bearing (true) Bearing (mag) Surface Threshold Offset Overrun Length
12 148 ft / 45 m 11,138 ft / 3,395 m 122.00° 117.28° Asphalt 1,000 ft / 305 m 0 ft / 0 m
30 148 ft / 45 m 11,138 ft / 3,395 m 302.03° 297.31° Asphalt 1,312 ft / 400 m 0 ft / 0 m

LRTR

Details ICAO LRTR (TSR)
Name TRAIAN VUIA
Region Romania
Timezone Europe/Bucharest (UTC+3.0)
Stats Elevation 348 ft / 106 m (AMSL)
Location 45.809834° 21.337872°
Runways 1
Magnetic Variation 5.021° E

METAR

LRTR 221330Z 17008KT 130V190 9999 SCT048 25/13 Q1016

Decode

TAF

TAF LRTR 221100Z 2212/2312 15008KT 9999 SCT045 PROB40 TEMPO 2213/2216 SCT040CB

Decode

Destination Runways

ID Width Length Bearing (true) Bearing (mag) Surface Threshold Offset Overrun Length
11 148 ft / 45 m 11,419 ft / 3,481 m 109.81° 104.79° Concrete 0 ft / 0 m 0 ft / 0 m
29 148 ft / 45 m 11,419 ft / 3,481 m 289.84° 284.82° Concrete 0 ft / 0 m 0 ft / 0 m

Approach Navaids

Runway Type Ident Frequency Range Bearing (true) Bearing (mag) Slope Elevation
29 Localiser ITR 109.30 MHz 18 nm / 33 km 289.80° 284.78° - 343 ft / 105 m (AMSL)
29 Glidescope ITR 109.30 MHz 10 nm / 19 km 289.82° 284.80° 3.00° 343 ft / 105 m (AMSL)
29 DME ITR 109.30 MHz 18 nm / 33 km - - - 399 ft / 122 m (AMSL)